Time;durP1;ratioP1;P1;durP2;ratioP2;P2;SDS_P1;SDS_P2;PMS_P1;PMS_P2;Temp;Humidity;BMP_temperature;BMP_pressure;BME280_temperature;BME280_humidity;BME280_pressure;Samples;Min_cycle;Max_cycle;Signal;HPM_P1;HPM_P2
2022/07/06 00:01:18;;;;;;;4.80;2.63;;;;;;;12.90;94.63;99088.00;5087334;28;20327;-70
2022/07/06 00:03:44;;;;;;;6.18;3.03;;;;;;;12.87;95.15;99097.75;5087689;28;20080;-70
2022/07/06 00:06:09;;;;;;;8.32;2.85;;;;;;;12.79;94.63;99097.91;5087517;28;20035;-70
2022/07/06 00:08:35;;;;;;;3.65;2.70;;;;;;;12.82;95.04;99099.66;5087213;28;20052;-70
2022/07/06 00:11:00;;;;;;;9.32;3.60;;;;;;;12.75;95.33;99093.63;5086925;28;20391;-70
2022/07/06 00:13:26;;;;;;;8.18;3.58;;;;;;;12.75;95.45;99090.97;5087159;28;20025;-70
2022/07/06 00:15:52;;;;;;;6.40;2.95;;;;;;;12.74;95.62;99099.81;5087162;28;20220;-70
2022/07/06 00:18:17;;;;;;;9.50;2.88;;;;;;;12.59;95.02;99092.19;5086971;28;20025;-70
2022/07/06 00:20:42;;;;;;;5.70;2.95;;;;;;;12.53;96.13;99088.81;5086990;28;20088;-70
2022/07/06 00:23:08;;;;;;;7.93;3.83;;;;;;;12.55;97.05;99106.34;5086916;28;20032;-70
2022/07/06 00:25:33;;;;;;;9.95;3.67;;;;;;;12.58;97.35;99106.31;5099056;28;20032;-70
2022/07/06 00:27:59;;;;;;;6.20;3.60;;;;;;;12.57;97.35;99101.91;5127555;28;20030;-70
2022/07/06 00:30:24;;;;;;;9.80;4.15;;;;;;;12.63;97.40;99104.41;5127299;28;20020;-70
2022/07/06 00:32:50;;;;;;;5.57;3.90;;;;;;;12.62;97.48;99101.81;5127585;28;20032;-70
2022/07/06 00:35:15;;;;;;;9.88;3.90;;;;;;;12.57;97.67;99104.53;5127515;28;20046;-70
2022/07/06 00:37:40;;;;;;;6.78;3.33;;;;;;;12.54;97.78;99104.63;5127514;28;20094;-70
2022/07/06 00:40:07;;;;;;;7.55;3.90;;;;;;;12.57;97.77;99104.53;5127105;28;20212;-70
2022/07/06 00:42:40;;;;;;;8.30;3.75;;;;;;;12.57;97.50;99099.25;5127325;28;20028;-70
2022/07/06 00:45:06;;;;;;;14.75;4.93;;;;;;;12.54;97.67;99098.47;5127180;28;20030;-70
2022/07/06 00:47:31;;;;;;;7.60;4.15;;;;;;;12.42;98.04;99104.88;5127259;28;20031;-70
2022/07/06 00:50:14;;;;;;;10.68;4.50;;;;;;;12.45;98.49;99098.63;5127035;28;20024;-70
2022/07/06 00:52:47;;;;;;;9.52;4.82;;;;;;;12.46;98.69;99106.53;5127161;28;20019;-70
2022/07/06 00:55:14;;;;;;;9.63;4.55;;;;;;;12.45;98.61;99103.91;5127013;28;20272;-70
2022/07/06 00:57:41;;;;;;;12.48;4.35;;;;;;;12.46;98.34;99106.53;5127092;28;20026;-70
2022/07/06 01:00:12;;;;;;;12.18;4.90;;;;;;;12.43;98.42;99111.88;5127042;28;20012;-70
2022/07/06 01:02:37;;;;;;;9.73;4.88;;;;;;;12.46;98.19;99117.09;5119304;28;20280;-70
2022/07/06 01:05:08;;;;;;;7.43;3.95;;;;;;;12.38;97.91;99107.59;5126756;28;20028;-70
2022/07/06 01:07:34;;;;;;;16.38;5.03;;;;;;;12.41;98.39;99113.66;5127050;28;20023;-70
2022/07/06 01:09:59;;;;;;;5.47;3.47;;;;;;;12.38;97.65;99108.47;5126560;28;20024;-70
2022/07/06 01:12:25;;;;;;;7.93;3.75;;;;;;;12.24;97.62;99099.03;5126772;28;20019;-70
2022/07/06 01:14:50;;;;;;;6.53;3.90;;;;;;;12.27;98.02;99106.91;5126763;28;20023;-70
2022/07/06 01:17:17;;;;;;;12.88;4.30;;;;;;;12.24;98.06;99104.31;5126594;28;20028;-70
2022/07/06 01:19:43;;;;;;;6.00;3.95;;;;;;;12.16;98.46;99106.25;5126627;28;20319;-70
2022/07/06 01:22:10;;;;;;;5.53;3.72;;;;;;;12.18;98.53;99105.31;5126449;28;20030;-70
2022/07/06 01:24:37;;;;;;;6.68;4.13;;;;;;;12.16;98.23;99101.84;5126569;28;20031;-70
2022/07/06 01:27:04;;;;;;;5.50;4.13;;;;;;;12.13;98.02;99093.97;5126061;28;20078;-70
2022/07/06 01:29:30;;;;;;;9.00;4.15;;;;;;;11.98;98.13;99098.63;5126339;28;20100;-70
2022/07/06 01:31:55;;;;;;;8.93;4.18;;;;;;;11.88;98.23;99100.59;5126357;28;20023;-70
2022/07/06 01:34:21;;;;;;;6.13;4.47;;;;;;;11.80;98.71;99105.09;5126184;28;20092;-70
2022/07/06 01:36:46;;;;;;;10.27;4.10;;;;;;;11.84;98.96;99104.19;5126387;28;20327;-70
2022/07/06 01:39:12;;;;;;;7.80;4.50;;;;;;;11.70;97.54;99100.88;5126315;28;20217;-70
2022/07/06 01:41:38;;;;;;;10.20;5.13;;;;;;;11.58;99.87;99101.03;5126096;28;20035;-70
2022/07/06 01:44:04;;;;;;;9.70;5.53;;;;;;;11.57;100.00;99109.84;5126127;28;20040;-70
2022/07/06 01:46:30;;;;;;;9.38;5.03;;;;;;;11.56;100.00;99110.75;5125946;28;20027;-70
2022/07/06 01:48:56;;;;;;;12.98;5.05;;;;;;;11.60;100.00;99103.66;5125988;28;20033;-70
2022/07/06 01:51:21;;;;;;;8.35;4.90;;;;;;;11.61;100.00;99101.00;5125922;28;20338;-70
2022/07/06 01:53:48;;;;;;;9.93;4.85;;;;;;;11.66;100.00;99104.47;5125779;28;20023;-70
2022/07/06 01:56:14;;;;;;;9.20;5.05;;;;;;;11.68;100.00;99105.28;5125753;28;20050;-70
2022/07/06 01:58:40;;;;;;;7.93;4.60;;;;;;;11.64;99.86;99108.03;5126155;28;20323;-70
2022/07/06 02:01:13;;;;;;;8.27;4.53;;;;;;;11.56;99.56;99097.56;5125457;28;20051;-70
2022/07/06 02:03:38;;;;;;;9.90;5.00;;;;;;;11.56;99.73;99096.69;5125721;28;20030;-70
2022/07/06 02:06:05;;;;;;;7.15;4.85;;;;;;;11.51;100.00;99102.03;5125859;28;20338;-70
2022/07/06 02:08:31;;;;;;;10.50;4.82;;;;;;;11.55;99.62;99100.25;5125593;28;20023;-70
2022/07/06 02:10:57;;;;;;;6.57;4.45;;;;;;;11.54;99.25;99096.72;5125409;28;20042;-70
2022/07/06 02:13:23;;;;;;;11.65;4.80;;;;;;;11.47;99.83;99092.44;5125594;28;20019;-70
2022/07/06 02:15:48;;;;;;;7.07;4.47;;;;;;;11.35;98.75;99092.63;5125469;28;20219;-70
2022/07/06 02:18:14;;;;;;;10.43;4.65;;;;;;;11.41;99.26;99092.53;5124301;28;20184;-70
2022/07/06 02:20:39;;;;;;;12.50;5.15;;;;;;;11.35;99.68;99092.63;5125301;28;20020;-70
2022/07/06 02:23:04;;;;;;;9.10;5.07;;;;;;;11.40;100.00;99096.06;5125381;28;20315;-70
2022/07/06 02:25:30;;;;;;;8.70;5.38;;;;;;;11.36;100.00;99099.63;5125071;28;20082;-70
2022/07/06 02:27:55;;;;;;;10.02;5.65;;;;;;;11.26;100.00;99100.66;5125154;28;20023;-70
2022/07/06 02:30:20;;;;;;;7.47;5.22;;;;;;;11.23;100.00;99098.06;5134111;27;20019;-70
2022/07/06 02:32:46;;;;;;;8.05;5.55;;;;;;;11.30;100.00;99105.03;5125539;27;20039;-70
2022/07/06 02:35:12;;;;;;;9.93;5.55;;;;;;;11.26;100.00;99100.66;5125042;28;20034;-70
2022/07/06 02:37:37;;;;;;;8.95;6.18;;;;;;;11.26;100.00;99103.28;5125189;28;20031;-70
2022/07/06 02:40:03;;;;;;;8.90;5.10;;;;;;;11.19;100.00;99098.13;5125022;28;20023;-70
2022/07/06 02:42:29;;;;;;;9.20;5.03;;;;;;;11.17;100.00;99102.56;5124857;28;20102;-70
2022/07/06 02:44:54;;;;;;;10.38;5.45;;;;;;;11.05;99.91;99098.34;5124954;28;20019;-70
2022/07/06 02:47:21;;;;;;;7.55;5.53;;;;;;;10.84;99.89;99096.00;5124884;28;20094;-70
2022/07/06 02:49:47;;;;;;;9.68;6.72;;;;;;;10.79;100.00;99100.47;5124801;28;20083;-70
2022/07/06 02:52:12;;;;;;;9.63;7.18;;;;;;;10.76;100.00;99100.50;5124902;28;20024;-71
2022/07/06 02:54:37;;;;;;;13.13;7.22;;;;;;;10.78;100.00;99103.97;5124769;28;20027;-71
2022/07/06 02:57:03;;;;;;;16.40;8.63;;;;;;;10.83;100.00;99107.44;5124794;28;20019;-71
2022/07/06 02:59:28;;;;;;;11.70;8.35;;;;;;;10.85;100.00;99105.63;5124675;28;20034;-70
2022/07/06 03:01:53;;;;;;;10.60;6.53;;;;;;;10.83;100.00;99112.69;5124799;28;20102;-71
2022/07/06 03:04:19;;;;;;;14.05;6.68;;;;;;;10.78;100.00;99114.50;5124615;28;20027;-71
2022/07/06 03:06:44;;;;;;;8.85;5.97;;;;;;;10.77;100.00;99118.91;5124346;28;20023;-71
2022/07/06 03:09:10;;;;;;;10.32;6.65;;;;;;;10.77;100.00;99113.66;5124471;28;20126;-71
2022/07/06 03:11:35;;;;;;;16.85;6.38;;;;;;;10.72;100.00;99115.47;5124568;28;20210;-71
2022/07/06 03:14:03;;;;;;;10.30;6.05;;;;;;;10.65;100.00;99123.44;5124374;28;20031;-71
2022/07/06 03:16:28;;;;;;;11.82;7.47;;;;;;;10.58;100.00;99127.03;5124266;28;20031;-71
2022/07/06 03:18:54;;;;;;;12.32;7.40;;;;;;;10.54;100.00;99130.59;5124309;28;20037;-71
2022/07/06 03:21:19;;;;;;;14.20;6.90;;;;;;;10.62;100.00;99129.63;5124403;28;20020;-71
2022/07/06 03:23:44;;;;;;;15.25;7.00;;;;;;;10.52;100.00;99127.13;5124213;28;20087;-71
2022/07/06 03:26:10;;;;;;;9.50;6.82;;;;;;;10.49;100.00;99128.03;5124134;28;20110;-71
2022/07/06 03:28:35;;;;;;;12.35;7.50;;;;;;;10.44;100.00;99127.19;5123848;28;20031;-71
2022/07/06 03:31:01;;;;;;;13.82;7.78;;;;;;;10.50;100.00;99129.75;5124111;28;20031;-71
2022/07/06 03:33:26;;;;;;;10.00;7.05;;;;;;;10.55;100.00;99132.34;5124285;28;20361;-71
2022/07/06 03:35:51;;;;;;;10.43;6.45;;;;;;;10.54;100.00;99135.88;5124244;28;20024;-71
2022/07/06 03:38:17;;;;;;;9.43;6.45;;;;;;;10.51;100.00;99125.38;5123842;28;20027;-71
2022/07/06 03:40:42;;;;;;;15.48;6.80;;;;;;;10.50;100.00;99123.63;5124020;28;20076;-70
2022/07/06 03:43:08;;;;;;;13.75;7.30;;;;;;;10.48;100.00;99134.16;5124277;28;20019;-70
2022/07/06 03:45:33;;;;;;;8.95;6.53;;;;;;;10.52;100.00;99132.38;5124106;28;20020;-70
2022/07/06 03:47:58;;;;;;;12.52;7.78;;;;;;;10.61;100.00;99132.28;5123868;28;20031;-70
2022/07/06 03:50:24;;;;;;;8.63;6.90;;;;;;;10.62;100.00;99136.63;5124344;28;20211;-70
2022/07/06 03:52:49;;;;;;;11.68;8.45;;;;;;;10.49;100.00;99133.28;5124274;28;20019;-71
2022/07/06 03:55:14;;;;;;;10.93;6.63;;;;;;;10.54;100.00;99133.25;5124348;28;20104;-71
2022/07/06 03:57:40;;;;;;;8.77;6.65;;;;;;;10.53;100.00;99139.38;5124053;28;20094;-71
2022/07/06 04:00:07;;;;;;;9.10;6.57;;;;;;;10.53;100.00;99139.38;5123980;28;20015;-71
2022/07/06 04:02:33;;;;;;;10.50;7.25;;;;;;;10.57;100.00;99146.38;5123725;28;20024;-71
2022/07/06 04:04:58;;;;;;;9.10;6.72;;;;;;;10.63;100.00;99141.00;5123972;28;20341;-71
2022/07/06 04:07:24;;;;;;;8.88;6.97;;;;;;;10.76;100.00;99142.63;5124048;28;20086;-71
2022/07/06 04:09:50;;;;;;;13.18;7.43;;;;;;;10.83;100.00;99154.81;5124145;28;20311;-71
2022/07/06 04:12:15;;;;;;;9.60;6.57;;;;;;;10.77;100.00;99149.63;5123949;28;20032;-71
2022/07/06 04:14:41;;;;;;;10.27;7.28;;;;;;;10.75;100.00;99151.41;5123775;28;20031;-71
2022/07/06 04:19:50;;;;;;;21.73;8.07;;;;;;;10.65;100.00;99155.03;5123736;28;20043;-71
2022/07/06 04:22:16;;;;;;;12.60;7.07;;;;;;;10.78;100.00;99148.72;5123725;28;20370;-71
2022/07/06 04:24:42;;;;;;;9.80;6.65;;;;;;;10.89;100.00;99155.59;5123726;28;20098;-70
2022/07/06 04:27:07;;;;;;;15.23;7.32;;;;;;;10.89;100.00;99155.59;5121886;28;20383;-70
2022/07/06 04:29:33;;;;;;;12.15;7.03;;;;;;;10.93;100.00;99161.72;5122744;28;20043;-70
2022/07/06 04:31:58;;;;;;;11.15;7.13;;;;;;;10.90;100.00;99161.75;5122865;28;20039;-70
2022/07/06 04:34:23;;;;;;;10.57;7.38;;;;;;;10.96;100.00;99166.94;5123008;28;20015;-70
2022/07/06 04:36:49;;;;;;;11.88;7.97;;;;;;;11.22;100.00;99170.13;5122500;28;20024;-70
2022/07/06 04:39:14;;;;;;;12.27;7.55;;;;;;;11.86;99.97;99170.06;5122236;28;20019;-70
2022/07/06 04:41:39;;;;;;;14.02;8.85;;;;;;;13.23;93.46;99170.16;5125624;28;20023;-70
2022/07/06 04:44:05;;;;;;;8.13;6.00;;;;;;;14.17;86.69;99159.97;5127203;28;20024;-70
2022/07/06 04:46:30;;;;;;;8.40;5.50;;;;;;;14.83;82.74;99165.28;5127607;28;20047;-70
2022/07/06 04:48:56;;;;;;;9.63;5.25;;;;;;;15.24;80.24;99167.63;5127570;28;20024;-70
2022/07/06 04:51:21;;;;;;;11.95;5.22;;;;;;;15.96;78.53;99173.34;5127366;28;20043;-70
2022/07/06 04:53:46;;;;;;;7.72;4.70;;;;;;;16.34;75.66;99169.41;5127448;28;20027;-70
2022/07/06 04:56:12;;;;;;;9.00;4.57;;;;;;;16.44;75.46;99171.75;5127439;28;20024;-70
2022/07/06 04:58:37;;;;;;;6.18;4.20;;;;;;;17.19;74.11;99179.63;5127329;28;20041;-70
2022/07/06 05:01:02;;;;;;;6.40;3.90;;;;;;;17.51;71.03;99174.91;5127313;28;20016;-70
2022/07/06 05:03:28;;;;;;;8.32;3.78;;;;;;;18.04;71.44;99187.00;5127246;28;20027;-70
2022/07/06 05:05:53;;;;;;;5.82;3.40;;;;;;;18.47;68.90;99187.84;5127248;28;20259;-70
2022/07/06 05:08:19;;;;;;;8.75;3.88;;;;;;;18.00;68.33;99178.25;5127104;28;20035;-70
2022/07/06 05:10:44;;;;;;;10.90;3.25;;;;;;;18.42;69.11;99183.66;5127087;28;20223;-70
2022/07/06 05:13:09;;;;;;;7.78;3.25;;;;;;;18.85;68.49;99188.88;5127070;28;20030;-70
2022/07/06 05:15:35;;;;;;;8.70;3.22;;;;;;;19.02;65.70;99189.00;5127030;28;20022;-70
2022/07/06 05:18:00;;;;;;;6.90;3.53;;;;;;;19.93;64.49;99189.19;5126958;28;20092;-70
2022/07/06 05:20:26;;;;;;;7.88;2.50;;;;;;;21.10;60.26;99193.91;5126918;28;20027;-70
2022/07/06 05:22:51;;;;;;;3.47;2.20;;;;;;;21.57;58.64;99204.75;5126857;28;20023;-70
2022/07/06 05:25:16;;;;;;;10.73;2.67;;;;;;;21.55;56.89;99197.75;5126743;28;20039;-70
2022/07/06 05:27:42;;;;;;;5.70;2.35;;;;;;;22.05;56.21;99190.50;5126709;28;20019;-70
2022/07/06 05:30:08;;;;;;;5.75;2.25;;;;;;;22.19;54.71;99201.28;5126612;28;20047;-70
2022/07/06 05:32:33;;;;;;;5.45;2.17;;;;;;;22.34;53.65;99193.22;5126663;28;20026;-70
2022/07/06 05:34:59;;;;;;;3.97;1.92;;;;;;;23.18;52.43;99198.88;5126626;28;20019;-70
2022/07/06 05:37:24;;;;;;;8.60;2.20;;;;;;;23.27;50.43;99197.47;5126580;28;20020;-70
2022/07/06 05:39:50;;;;;;;5.88;2.05;;;;;;;23.86;50.23;99208.06;5126565;28;20020;-70
2022/07/06 05:42:16;;;;;;;8.90;2.33;;;;;;;24.04;48.35;99206.03;5126763;28;20026;-70
2022/07/06 05:44:41;;;;;;;6.43;1.70;;;;;;;24.61;48.68;99208.44;5126524;28;20058;-70
2022/07/06 05:52:35;;;;;;;3.15;1.45;;;;;;;24.66;46.30;99195.56;5126113;28;20026;-70
2022/07/06 05:55:00;;;;;;;8.98;1.50;;;;;;;24.58;45.44;99192.47;5126293;28;20215;-70
2022/07/06 05:57:26;;;;;;;8.63;1.77;;;;;;;23.61;45.97;99181.00;5126450;28;20027;-70
2022/07/06 05:59:51;;;;;;;5.10;1.70;;;;;;;24.60;45.58;99214.78;5126163;28;20022;-70
2022/07/06 06:02:17;;;;;;;13.30;2.28;;;;;;;24.11;45.07;99193.91;5126069;28;20039;-70
2022/07/06 06:04:42;;;;;;;4.43;1.70;;;;;;;24.54;45.38;99201.75;5126099;28;20043;-70
2022/07/06 06:07:08;;;;;;;5.28;1.50;;;;;;;25.04;45.54;99212.69;5125998;28;20082;-70
2022/07/06 06:09:33;;;;;;;4.75;1.75;;;;;;;24.42;44.59;99197.16;5125887;28;20022;-70
2022/07/06 06:11:59;;;;;;;3.33;1.38;;;;;;;24.66;43.45;99200.09;5125920;28;20090;-70
2022/07/06 06:14:24;;;;;;;2.38;1.35;;;;;;;25.80;44.55;99223.50;5125859;28;20065;-70
2022/07/06 06:16:49;;;;;;;4.85;1.42;;;;;;;25.60;41.75;99221.34;5125749;28;20019;-70
2022/07/06 06:19:15;;;;;;;5.90;1.52;;;;;;;25.74;42.25;99229.31;5125737;28;20019;-70
2022/07/06 06:21:40;;;;;;;3.90;1.55;;;;;;;25.94;41.96;99231.47;5125816;28;20315;-70
2022/07/06 06:24:06;;;;;;;5.03;2.03;;;;;;;24.95;43.55;99218.69;5125620;28;20042;-70
2022/07/06 06:26:31;;;;;;;4.63;1.60;;;;;;;26.18;42.16;99229.72;5125480;28;20059;-70
2022/07/06 06:28:56;;;;;;;2.67;1.25;;;;;;;26.36;41.33;99233.75;5125523;28;20026;-70
2022/07/06 06:31:22;;;;;;;3.60;1.48;;;;;;;26.33;40.76;99224.06;5125456;28;20376;-70
2022/07/06 06:33:47;;;;;;;5.43;1.63;;;;;;;26.42;41.50;99228.75;5125601;28;20027;-70
2022/07/06 06:36:13;;;;;;;6.05;1.33;;;;;;;26.74;40.47;99229.09;5125457;28;20042;-70
2022/07/06 06:38:39;;;;;;;6.22;1.55;;;;;;;26.62;39.97;99230.00;5125417;28;20023;-70
2022/07/06 06:41:04;;;;;;;2.63;1.27;;;;;;;26.77;40.23;99231.56;5125386;28;20035;-70
2022/07/06 06:43:29;;;;;;;4.72;1.40;;;;;;;26.85;38.61;99235.41;5125325;28;20086;-70
2022/07/06 06:45:55;;;;;;;4.70;1.38;;;;;;;27.16;39.71;99242.03;5125305;28;20402;-70
2022/07/06 06:48:20;;;;;;;6.35;1.60;;;;;;;27.50;38.50;99241.19;5125192;28;20030;-70
2022/07/06 06:50:46;;;;;;;4.30;1.60;;;;;;;26.97;39.58;99239.88;5125121;28;20086;-70
2022/07/06 06:53:11;;;;;;;2.95;1.33;;;;;;;28.13;38.80;99263.16;5125188;28;20030;-70
2022/07/06 06:55:37;;;;;;;3.53;1.13;;;;;;;27.52;38.73;99246.47;5125075;28;20043;-70
2022/07/06 06:58:02;;;;;;;5.80;1.30;;;;;;;27.98;38.49;99258.97;5125073;28;20078;-70
2022/07/06 07:00:28;;;;;;;4.65;1.63;;;;;;;28.32;38.49;99263.34;5125049;28;20121;-70
2022/07/06 07:02:53;;;;;;;5.80;1.70;;;;;;;28.23;38.67;99258.72;5124634;28;20069;-70
2022/07/06 07:05:18;;;;;;;6.55;1.63;;;;;;;26.88;38.90;99245.13;5124769;28;20023;-70
2022/07/06 07:07:44;;;;;;;4.97;1.40;;;;;;;26.86;39.99;99255.19;5125002;28;20031;-70
2022/07/06 07:10:09;;;;;;;6.80;1.60;;;;;;;28.12;38.71;99272.22;5125052;28;20031;-70
2022/07/06 07:12:35;;;;;;;3.13;1.50;;;;;;;28.06;38.82;99261.91;5124858;28;20046;-70
2022/07/06 07:15:01;;;;;;;4.47;1.30;;;;;;;28.71;37.96;99275.50;5124801;28;20135;-70
2022/07/06 07:17:26;;;;;;;4.43;1.48;;;;;;;28.06;36.84;99259.19;5124758;28;20019;-70
2022/07/06 07:19:52;;;;;;;6.05;1.80;;;;;;;27.83;38.82;99264.69;5124710;28;20083;-70
2022/07/06 07:22:17;;;;;;;10.38;1.63;;;;;;;27.87;37.70;99255.41;5124960;28;20015;-70
2022/07/06 07:24:42;;;;;;;3.65;1.73;;;;;;;28.11;38.00;99259.69;5124691;28;20047;-70
2022/07/06 07:27:08;;;;;;;2.75;1.42;;;;;;;29.06;37.46;99260.75;5124385;28;20093;-70
2022/07/06 07:29:33;;;;;;;4.90;1.52;;;;;;;28.06;36.38;99244.81;5124491;28;20025;-70
2022/07/06 07:31:59;;;;;;;4.93;1.52;;;;;;;28.90;36.68;99265.72;5124574;28;20019;-70
2022/07/06 07:34:24;;;;;;;3.05;1.38;;;;;;;28.50;37.19;99261.00;5124531;28;20319;-70
2022/07/06 07:36:49;;;;;;;4.30;1.67;;;;;;;27.84;37.51;99261.84;5124589;28;20020;-70
2022/07/06 07:39:15;;;;;;;7.25;1.38;;;;;;;27.04;39.04;99253.78;5124547;28;20046;-70
2022/07/06 07:41:40;;;;;;;6.00;2.15;;;;;;;26.60;38.52;99231.91;5124539;28;20027;-70
2022/07/06 07:44:06;;;;;;;3.90;1.50;;;;;;;26.91;39.61;99248.47;5124405;28;20057;-70
2022/07/06 07:46:31;;;;;;;9.30;1.60;;;;;;;27.19;38.62;99244.50;5124426;28;20034;-70
2022/07/06 07:48:56;;;;;;;9.55;1.90;;;;;;;26.88;38.82;99239.72;5124386;28;20395;-70
2022/07/06 07:51:22;;;;;;;5.53;1.58;;;;;;;27.69;38.70;99246.84;5124345;28;20027;-70
2022/07/06 07:53:47;;;;;;;3.65;1.50;;;;;;;28.79;37.81;99263.03;5124395;28;20023;-70
2022/07/06 07:56:13;;;;;;;4.63;1.58;;;;;;;28.83;36.94;99256.41;5124404;28;20032;-70
2022/07/06 07:58:38;;;;;;;3.53;1.40;;;;;;;28.95;37.63;99263.47;5124322;28;20019;-70
2022/07/06 08:01:04;;;;;;;6.18;1.30;;;;;;;29.98;36.35;99265.38;5124314;28;20392;-70
2022/07/06 08:03:30;;;;;;;4.07;1.67;;;;;;;29.78;35.57;99260.84;5124233;28;20099;-70
2022/07/06 08:05:56;;;;;;;4.63;1.40;;;;;;;29.30;35.77;99255.09;5124539;28;20301;-70
2022/07/06 08:08:21;;;;;;;4.30;1.67;;;;;;;28.24;39.24;99249.59;5124193;28;20026;-70
2022/07/06 08:10:47;;;;;;;4.97;1.70;;;;;;;28.24;39.70;99249.59;5124201;28;20221;-70
2022/07/06 08:13:14;;;;;;;2.63;1.10;;;;;;;28.60;38.77;99254.72;5124133;28;20091;-70
2022/07/06 08:15:40;;;;;;;4.93;1.80;;;;;;;29.24;38.13;99259.19;5125264;28;20027;-70
2022/07/06 08:18:05;;;;;;;6.30;1.83;;;;;;;29.08;38.92;99258.75;5128133;28;20088;-70
2022/07/06 08:20:30;;;;;;;7.90;2.70;;;;;;;29.14;35.45;99243.84;5128078;28;20214;-70
2022/07/06 08:22:56;;;;;;;4.13;1.60;;;;;;;29.14;37.01;99252.81;5128099;28;20020;-70
2022/07/06 08:25:21;;;;;;;4.05;1.90;;;;;;;27.82;37.25;99234.06;5127871;28;20043;-70
2022/07/06 08:27:47;;;;;;;6.93;1.42;;;;;;;28.09;39.67;99256.25;5127959;28;20020;-70
2022/07/06 08:30:13;;;;;;;4.40;1.60;;;;;;;29.48;38.15;99266.22;5127877;28;20192;-70
2022/07/06 08:32:40;;;;;;;5.25;1.58;;;;;;;28.60;37.68;99251.16;5127875;28;20085;-70
2022/07/06 08:35:06;;;;;;;5.30;1.50;;;;;;;29.51;38.15;99265.97;5127878;28;20020;-70
2022/07/06 08:37:31;;;;;;;3.28;1.45;;;;;;;30.15;36.05;99264.78;5128005;28;20043;-70
2022/07/06 08:39:56;;;;;;;3.25;1.25;;;;;;;28.33;38.51;99235.31;5127769;28;20019;-70
2022/07/06 08:42:26;;;;;;;7.43;1.80;;;;;;;28.88;38.34;99240.59;5127701;28;20248;-70
2022/07/06 08:44:53;;;;;;;2.88;1.35;;;;;;;29.26;38.63;99255.50;5127692;28;20353;-70
2022/07/06 08:47:18;;;;;;;6.30;1.67;;;;;;;30.24;37.25;99262.09;5127667;28;20065;-70
2022/07/06 08:49:44;;;;;;;4.72;1.50;;;;;;;31.06;35.82;99260.88;5127514;28;20020;-70
2022/07/06 08:52:11;;;;;;;4.88;1.55;;;;;;;30.92;36.26;99258.59;5127558;28;20224;-70
2022/07/06 08:54:37;;;;;;;5.32;1.67;;;;;;;29.15;38.34;99243.72;5127423;28;20024;-70
2022/07/06 08:57:03;;;;;;;3.83;1.60;;;;;;;27.50;39.45;99230.34;5127430;28;20027;-70
2022/07/06 08:59:29;;;;;;;3.67;1.40;;;;;;;26.99;40.83;99228.97;5127301;28;20023;-70
2022/07/06 09:01:55;;;;;;;5.35;1.60;;;;;;;28.02;39.21;99237.91;5127311;28;20030;-70
2022/07/06 09:04:22;;;;;;;6.80;1.90;;;;;;;28.70;37.75;99242.13;5127320;28;20099;-70
2022/07/06 09:06:49;;;;;;;7.15;1.80;;;;;;;28.48;37.71;99231.38;5127242;28;20046;-70
2022/07/06 09:09:20;;;;;;;7.63;1.88;;;;;;;27.25;40.15;99225.97;5127138;28;20235;-70
2022/07/06 09:11:46;;;;;;;5.90;1.70;;;;;;;27.04;40.57;99232.16;5127398;28;20096;-70
2022/07/06 09:14:11;;;;;;;4.68;1.75;;;;;;;27.41;40.83;99231.06;5127132;28;20019;-70
2022/07/06 09:16:37;;;;;;;6.80;1.67;;;;;;;28.64;39.88;99245.38;5127018;28;20019;-70
2022/07/06 09:19:02;;;;;;;4.75;1.75;;;;;;;29.54;37.15;99254.84;5126995;28;20069;-70
2022/07/06 09:21:31;;;;;;;6.22;1.60;;;;;;;29.55;36.59;99245.69;5127195;28;20034;-70
2022/07/06 09:23:59;;;;;;;3.78;1.65;;;;;;;29.95;36.23;99247.53;5126849;28;20050;-70
2022/07/06 09:26:25;;;;;;;3.03;1.38;;;;;;;28.99;37.09;99235.13;5126220;28;20043;-70
2022/07/06 09:28:51;;;;;;;6.88;1.70;;;;;;;28.59;38.66;99244.00;5126700;28;20322;-70
2022/07/06 09:31:17;;;;;;;7.93;1.70;;;;;;;29.19;37.13;99239.75;5126715;28;20026;-70
2022/07/06 09:33:57;;;;;;;6.22;1.60;;;;;;;29.38;36.54;99249.03;5126685;28;20090;-70
2022/07/06 09:36:39;;;;;;;4.13;1.40;;;;;;;28.72;37.24;99234.72;5126646;28;20080;-70
2022/07/06 09:39:26;;;;;;;3.58;1.15;;;;;;;28.23;38.76;99242.47;5126614;28;20023;-70
2022/07/06 09:41:54;;;;;;;4.20;1.35;;;;;;;28.49;37.56;99243.91;5126590;28;20015;-70
2022/07/06 09:44:25;;;;;;;5.07;1.55;;;;;;;29.02;37.66;99252.97;5126500;28;20019;-70
2022/07/06 09:46:52;;;;;;;6.00;1.70;;;;;;;29.15;35.79;99248.28;5126469;28;20023;-70
2022/07/06 09:49:21;;;;;;;4.28;1.90;;;;;;;29.18;36.19;99248.88;5126296;28;20107;-70
2022/07/06 09:51:48;;;;;;;3.85;1.40;;;;;;;29.64;35.82;99261.22;5126575;28;20016;-70
2022/07/06 09:54:15;;;;;;;5.00;1.30;;;;;;;26.84;39.48;99227.41;5108086;28;20019;-70
2022/07/06 09:56:44;;;;;;;1.58;1.10;;;;;;;27.14;38.93;99241.28;5126188;28;20043;-70
2022/07/06 09:59:13;;;;;;;4.78;1.30;;;;;;;27.60;37.66;99250.28;5126449;28;20023;-70
2022/07/06 10:01:39;;;;;;;2.83;1.38;;;;;;;28.71;34.99;99249.28;5126115;28;20046;-70
2022/07/06 10:04:06;;;;;;;7.13;1.27;;;;;;;28.57;35.52;99254.97;5126124;28;20088;-70
2022/07/06 10:06:32;;;;;;;6.57;1.30;;;;;;;29.14;35.52;99263.66;5126292;28;20038;-70
2022/07/06 10:08:58;;;;;;;2.40;1.20;;;;;;;29.39;34.86;99256.16;5126016;28;20192;-70
2022/07/06 10:11:24;;;;;;;8.10;1.25;;;;;;;29.69;33.17;99264.38;5125813;28;20019;-70
2022/07/06 10:13:54;;;;;;;3.92;1.17;;;;;;;29.32;34.01;99254.97;5125888;28;20065;-70
2022/07/06 10:16:21;;;;;;;6.30;1.73;;;;;;;29.52;32.88;99245.97;5125843;28;20096;-70
2022/07/06 10:18:47;;;;;;;6.00;1.35;;;;;;;29.73;33.29;99255.00;5125805;28;20323;-70
2022/07/06 10:21:12;;;;;;;5.55;1.05;;;;;;;29.61;33.55;99261.44;5125847;28;20015;-70
2022/07/06 10:23:39;;;;;;;4.32;1.20;;;;;;;29.47;33.79;99254.50;5125753;28;20019;-70
2022/07/06 10:26:06;;;;;;;5.18;1.02;;;;;;;28.28;33.91;99228.56;5125418;28;20106;-70
2022/07/06 10:28:32;;;;;;;1.92;0.98;;;;;;;28.43;35.09;99238.09;5125559;28;20027;-70
2022/07/06 10:30:57;;;;;;;2.45;0.88;;;;;;;28.12;35.02;99234.34;5125553;28;20208;-70
2022/07/06 10:33:24;;;;;;;3.80;1.08;;;;;;;28.78;35.40;99252.31;5125520;28;20023;-70
2022/07/06 10:35:50;;;;;;;1.65;1.00;;;;;;;29.00;35.30;99244.97;5125383;28;20089;-70
2022/07/06 10:38:17;;;;;;;2.90;1.00;;;;;;;29.33;33.26;99246.72;5124670;28;20024;-70
2022/07/06 10:43:42;;;;;;;3.83;1.20;;;;;;;29.53;33.94;99255.81;5125352;28;20026;-70
2022/07/06 10:46:13;;;;;;;5.27;1.00;;;;;;;29.55;31.11;99235.72;5125350;28;20074;-70
2022/07/06 10:48:40;;;;;;;3.30;1.10;;;;;;;28.78;33.57;99230.66;5125523;28;20255;-70
2022/07/06 10:51:05;;;;;;;3.53;1.20;;;;;;;28.33;33.98;99220.88;5125112;28;20091;-70
2022/07/06 10:53:37;;;;;;;5.40;1.75;;;;;;;28.15;35.58;99234.09;5125183;28;20027;-70
2022/07/06 10:56:08;;;;;;;6.05;1.48;;;;;;;26.49;35.66;99224.66;5125102;28;20046;-70
2022/07/06 10:58:52;;;;;;;1.42;0.90;;;;;;;27.03;38.51;99225.03;5125339;28;20064;-70
2022/07/06 11:01:20;;;;;;;6.78;2.08;;;;;;;27.09;37.20;99213.75;5125273;28;20043;-70
2022/07/06 11:03:49;;;;;;;4.25;1.30;;;;;;;27.39;37.71;99219.50;5125018;28;20089;-70
2022/07/06 11:06:20;;;;;;;3.08;1.20;;;;;;;27.64;35.90;99222.00;5125194;28;20019;-70
2022/07/06 11:08:57;;;;;;;2.53;1.20;;;;;;;27.48;37.65;99216.09;5125020;28;20042;-70
2022/07/06 11:11:31;;;;;;;2.63;1.48;;;;;;;27.13;36.60;99218.81;5124790;28;20024;-70
2022/07/06 11:17:19;;;;;;;2.72;1.33;;;;;;;27.80;37.28;99233.31;5124760;28;20023;-70
2022/07/06 11:19:56;;;;;;;4.35;1.80;;;;;;;27.42;37.34;99205.75;5124798;28;20019;-70
2022/07/06 11:22:24;;;;;;;3.15;1.20;;;;;;;26.71;38.84;99202.31;5124754;28;20024;-70
2022/07/06 11:24:51;;;;;;;3.10;1.40;;;;;;;26.91;37.56;99204.34;5124938;28;20015;-70
2022/07/06 11:27:17;;;;;;;2.05;0.95;;;;;;;27.08;37.69;99201.22;5124835;28;20051;-70
2022/07/06 11:29:44;;;;;;;4.75;1.15;;;;;;;27.10;37.20;99199.25;5124577;28;20032;-70
2022/07/06 11:32:11;;;;;;;4.18;1.20;;;;;;;26.87;37.27;99200.19;5124561;28;20024;-70
2022/07/06 11:34:39;;;;;;;2.95;1.08;;;;;;;26.69;36.90;99198.84;5124824;28;20023;-70
2022/07/06 11:37:10;;;;;;;2.33;1.00;;;;;;;26.06;39.27;99188.28;5124517;28;20024;-70
2022/07/06 11:39:41;;;;;;;4.15;1.23;;;;;;;25.90;39.62;99192.19;5124560;28;20019;-70